Huvudsida
METAR-TAF:

METAR-TAF

Flygplatser :

Khorram Abad

Khorramabad, Iran

latitud: 33-26-11N, longitud: 048-17-09E, höjd: 1155 m

Aktuellt väderrapport

Denna rapport gjordes för 39 minuter sedan, klockan 12:30 UTC
Vind 8 kt från väst
Temperatur 20°C
Fuktighet 15%
Tryck 1021 hPa
Sikt 10 km eller mer
Inga moln under 1 500 m eller inga cumulonimbus

METAR: OICK 121230Z 26008KT CAVOK 20/M07 Q1021

Tid: 16:39 (13:09 UTC)


TAF: saknas

Aktuella väderrapporter och prognoser från 4000 flygplatser (METAR- och TAF-rapporter).

De tillgängliga stationerna syns som gula och röda prickar på kartan.

För musen över prickarna för att se namnen på stationerna.

Klicka sedan för att få väderrapporter och prognoser.

För att ändra kartan: Klicka på de gröna knapparna med ett svart kors på för att zooma in; den gröna knappen med ett streck på för att zooma ut; eller på de gröna pilarna för angränsande kartor.


METAR-TAF: